Time;durP1;ratioP1;P1;durP2;ratioP2;P2;SDS_P1;SDS_P2;PMS_P1;PMS_P2;Temp;Humidity;BMP_temperature;BMP_pressure;BME280_temperature;BME280_humidity;BME280_pressure;Samples;Min_cycle;Max_cycle;Signal;HPM_P1;HPM_P2
2021/11/09 00:00:33;;;;;;;20.35;7.72;;;;;;;11.40;96.33;97260.06;4964269;28;20150;-68
2021/11/09 00:03:06;;;;;;;27.05;10.85;;;;;;;11.25;95.06;97241.59;4965848;28;20169;-66
2021/11/09 00:05:32;;;;;;;19.40;8.18;;;;;;;10.87;95.68;97203.69;4966690;28;20051;-67
2021/11/09 00:08:02;;;;;;;18.73;7.97;;;;;;;11.12;96.87;97254.03;4964357;28;20069;-67
2021/11/09 00:10:30;;;;;;;22.00;9.25;;;;;;;11.13;96.37;97255.66;4966089;28;20051;-67
2021/11/09 00:13:03;;;;;;;20.17;9.75;;;;;;;11.22;95.62;97247.88;4965641;28;20509;-67
2021/11/09 00:15:32;;;;;;;23.73;10.85;;;;;;;11.21;95.75;97252.63;4966713;28;20081;-66
2021/11/09 00:18:02;;;;;;;19.05;7.93;;;;;;;10.31;99.57;97264.31;4964349;28;20054;-65
2021/11/09 00:20:32;;;;;;;17.98;7.72;;;;;;;10.24;100.00;97235.69;4965961;28;20057;-66
2021/11/09 00:23:01;;;;;;;22.17;7.50;;;;;;;10.23;98.99;97240.41;4966059;28;20145;-66
2021/11/09 00:25:28;;;;;;;21.45;7.88;;;;;;;10.56;98.33;97276.72;4965777;28;20090;-66
2021/11/09 00:27:55;;;;;;;13.70;6.95;;;;;;;10.53;98.64;97271.91;4964469;28;20051;-66
2021/11/09 00:30:23;;;;;;;21.27;7.93;;;;;;;10.50;98.92;97277.34;4965302;28;20047;-66
2021/11/09 00:32:51;;;;;;;22.08;8.38;;;;;;;10.21;100.00;97277.94;4963878;28;20058;-68
2021/11/09 00:35:22;;;;;;;18.40;8.30;;;;;;;10.29;100.00;97276.94;4965607;28;20050;-66
2021/11/09 00:37:50;;;;;;;16.67;8.23;;;;;;;10.38;100.00;97272.78;4964176;28;20070;-67
2021/11/09 00:40:20;;;;;;;16.27;8.07;;;;;;;10.29;100.00;97255.56;4965804;28;20054;-68
2021/11/09 00:42:47;;;;;;;22.73;10.18;;;;;;;9.77;100.00;97165.84;4964226;28;20104;-68
2021/11/09 00:45:14;;;;;;;26.23;11.00;;;;;;;10.53;100.00;97287.72;4965333;28;20134;-66
2021/11/09 00:47:43;;;;;;;20.90;9.02;;;;;;;10.11;100.00;97236.97;4965859;28;20145;-65
2021/11/09 00:50:11;;;;;;;23.50;8.63;;;;;;;10.10;99.32;97227.84;4964267;28;20129;-65
2021/11/09 00:52:38;;;;;;;16.58;8.98;;;;;;;10.59;99.87;97292.59;4964890;28;20138;-66
2021/11/09 00:55:06;;;;;;;25.45;10.63;;;;;;;10.62;99.53;97291.88;4963750;28;20051;-67
2021/11/09 00:57:33;;;;;;;16.80;9.88;;;;;;;10.48;100.00;97291.56;4965089;28;20050;-66
2021/11/09 01:00:00;;;;;;;23.25;10.68;;;;;;;10.19;100.00;97294.91;4965514;28;20141;-67
2021/11/09 01:02:27;;;;;;;20.95;10.15;;;;;;;10.40;100.00;97295.34;4965398;28;20071;-65
2021/11/09 01:04:55;;;;;;;17.58;8.73;;;;;;;10.39;99.69;97299.28;4965475;28;20113;-66
2021/11/09 01:07:22;;;;;;;19.52;9.13;;;;;;;10.33;99.64;97300.75;4963922;28;20078;-66
2021/11/09 01:09:49;;;;;;;16.52;7.93;;;;;;;10.11;100.00;97254.38;4963708;28;20051;-66
2021/11/09 01:12:16;;;;;;;18.88;8.63;;;;;;;9.89;99.35;97234.88;4963624;28;20155;-66
2021/11/09 01:14:43;;;;;;;16.75;7.95;;;;;;;10.35;99.51;97294.84;4965461;28;20062;-66
2021/11/09 01:17:10;;;;;;;17.60;8.73;;;;;;;10.24;99.03;97291.06;4965172;28;20137;-67
2021/11/09 01:19:38;;;;;;;22.88;8.48;;;;;;;10.37;98.50;97296.09;4964939;28;20084;-66
2021/11/09 01:22:06;;;;;;;22.50;8.70;;;;;;;10.41;98.52;97296.97;4964705;28;20059;-66
2021/11/09 01:24:33;;;;;;;19.20;8.35;;;;;;;10.18;97.89;97229.63;4965129;28;20443;-66
2021/11/09 01:27:00;;;;;;;16.48;7.90;;;;;;;10.58;98.48;97281.88;4964060;28;20054;-68
2021/11/09 01:29:28;;;;;;;17.98;8.38;;;;;;;9.99;98.37;97185.28;4965761;28;20086;-67
2021/11/09 01:31:55;;;;;;;14.70;6.03;;;;;;;10.16;99.05;97217.31;4971351;28;20153;-66
2021/11/09 01:34:22;;;;;;;13.65;6.63;;;;;;;10.69;98.64;97267.09;4971396;28;20058;-67
2021/11/09 01:36:49;;;;;;;17.60;6.82;;;;;;;10.23;98.35;97179.50;4970936;28;20173;-66
2021/11/09 01:39:16;;;;;;;20.20;7.72;;;;;;;10.76;97.27;97271.97;4971038;28;20484;-66
2021/11/09 01:41:43;;;;;;;14.80;7.13;;;;;;;10.70;97.71;97271.44;4971231;28;20082;-66
2021/11/09 01:44:10;;;;;;;20.83;8.55;;;;;;;10.60;96.66;97266.53;4971300;28;20125;-65
2021/11/09 01:46:37;;;;;;;19.90;8.40;;;;;;;10.73;95.55;97269.94;4970219;28;20136;-65
2021/11/09 01:49:06;;;;;;;19.33;8.73;;;;;;;10.63;95.71;97276.88;4971056;28;20058;-65
2021/11/09 01:51:33;;;;;;;15.85;8.50;;;;;;;10.35;96.76;97254.09;4971053;28;20137;-66
2021/11/09 01:54:02;;;;;;;17.80;8.65;;;;;;;10.23;98.09;97268.09;4971277;28;20059;-66
2021/11/09 01:56:31;;;;;;;15.88;9.05;;;;;;;9.58;100.00;97273.66;4969214;28;20098;-64
2021/11/09 01:58:58;;;;;;;19.17;8.43;;;;;;;9.70;100.00;97252.22;4969277;28;20133;-65
2021/11/09 02:01:27;;;;;;;18.17;9.10;;;;;;;10.00;100.00;97267.16;4970524;28;20092;-64
2021/11/09 02:03:57;;;;;;;20.65;7.93;;;;;;;9.91;100.00;97252.69;4970959;28;20137;-67
2021/11/09 02:06:25;;;;;;;18.08;7.93;;;;;;;10.13;100.00;97279.72;4970916;28;20057;-65
2021/11/09 02:08:58;;;;;;;23.25;7.95;;;;;;;9.94;100.00;97276.88;4970150;28;20601;-66
2021/11/09 02:11:25;;;;;;;13.93;7.63;;;;;;;10.01;100.00;97273.47;4969427;28;20067;-66
2021/11/09 02:13:52;;;;;;;18.92;8.63;;;;;;;9.41;100.00;97172.53;4971271;28;20050;-65
2021/11/09 02:16:20;;;;;;;19.70;8.02;;;;;;;9.75;100.00;97235.38;4970702;28;20050;-65
2021/11/09 02:18:47;;;;;;;16.05;7.85;;;;;;;10.25;98.37;97287.09;4970976;28;20053;-66
2021/11/09 02:21:14;;;;;;;16.95;7.68;;;;;;;9.68;98.55;97213.06;4970956;28;20085;-65
2021/11/09 02:23:44;;;;;;;16.90;7.72;;;;;;;10.09;99.34;97278.03;4969406;28;20050;-65
2021/11/09 02:26:13;;;;;;;20.35;8.73;;;;;;;9.34;99.00;97169.59;4968845;28;20055;-65
2021/11/09 02:28:41;;;;;;;14.73;7.82;;;;;;;10.06;99.42;97256.59;4970683;28;20129;-65
2021/11/09 02:31:08;;;;;;;18.23;8.40;;;;;;;10.29;98.08;97293.53;4970813;28;20129;-65
2021/11/09 02:33:36;;;;;;;19.55;9.23;;;;;;;10.28;99.08;97286.38;4971062;28;20051;-64
2021/11/09 02:36:04;;;;;;;20.40;10.25;;;;;;;10.04;99.47;97243.13;4970288;28;20437;-66
2021/11/09 02:38:31;;;;;;;19.58;9.57;;;;;;;9.75;98.96;97179.22;4969195;28;20101;-64
2021/11/09 02:40:58;;;;;;;20.65;8.38;;;;;;;10.49;98.70;97286.84;4967656;28;20086;-65
2021/11/09 02:43:26;;;;;;;21.80;9.05;;;;;;;9.73;98.96;97210.00;4967971;28;20089;-64
2021/11/09 02:48:53;;;;;;;21.55;8.27;;;;;;;9.66;100.00;97214.59;4968152;28;20059;-65
2021/11/09 02:51:26;;;;;;;21.40;9.50;;;;;;;10.17;100.00;97308.31;4967321;28;20134;-66
2021/11/09 03:02:33;;;;;;;15.25;7.88;;;;;;;9.45;100.00;97303.38;4986246;28;20050;-65
2021/11/09 03:12:21;;;;;;;19.15;6.90;;;;;;;9.68;100.00;97318.16;4966643;28;20059;-66
2021/11/09 03:14:49;;;;;;;22.08;8.93;;;;;;;9.37;100.00;97260.13;4967412;28;20501;-64
2021/11/09 03:17:19;;;;;;;15.73;8.38;;;;;;;9.18;100.00;97210.28;4966957;28;20059;-65
2021/11/09 03:19:59;;;;;;;17.48;7.25;;;;;;;9.83;100.00;97317.34;4967891;28;20137;-66
2021/11/09 03:47:04;;;;;;;16.80;7.20;;;;;;;9.65;100.00;97396.31;4965936;28;20063;-65
2021/11/09 03:49:34;;;;;;;17.80;8.18;;;;;;;8.79;100.00;97297.63;4965258;28;20073;-64
2021/11/09 03:52:08;;;;;;;23.00;9.00;;;;;;;9.68;100.00;97412.19;4965204;28;20510;-64
2021/11/09 03:54:35;;;;;;;25.98;8.80;;;;;;;9.88;100.00;97415.88;4966744;28;20059;-65
2021/11/09 03:57:08;;;;;;;20.92;8.52;;;;;;;9.95;100.00;97422.41;4964790;28;20067;-66
2021/11/09 04:05:00;;;;;;;16.27;7.55;;;;;;;10.15;100.00;97432.41;4968641;28;20059;-64
2021/11/09 04:10:12;;;;;;;32.00;13.02;;;;;;;10.35;100.00;97442.38;4966138;28;20053;-65
2021/11/09 04:13:02;;;;;;;26.95;10.93;;;;;;;9.84;100.00;97354.91;4965501;28;20059;-66
2021/11/09 04:18:15;;;;;;;22.42;9.52;;;;;;;10.00;99.95;97350.19;4965717;28;20059;-65
2021/11/09 05:11:10;;;;;;;17.98;7.93;;;;;;;10.53;99.43;97501.78;4964824;28;20103;-66
2021/11/09 05:13:36;;;;;;;16.80;7.50;;;;;;;10.67;99.64;97470.84;4963264;28;20058;-66
2021/11/09 05:16:03;;;;;;;13.70;7.80;;;;;;;10.49;99.32;97426.13;4964750;28;20058;-69
2021/11/09 05:18:31;;;;;;;17.63;7.30;;;;;;;10.73;98.01;97474.16;4965021;28;20137;-69
2021/11/09 05:20:57;;;;;;;21.52;7.07;;;;;;;9.90;100.00;97422.66;4965113;28;20069;-67
2021/11/09 05:23:25;;;;;;;15.40;7.18;;;;;;;9.25;100.00;97365.22;4964775;28;20426;-68
2021/11/09 05:25:52;;;;;;;16.27;7.45;;;;;;;9.80;100.00;97442.53;4963877;28;20057;-67
2021/11/09 05:28:19;;;;;;;12.75;7.13;;;;;;;10.32;100.00;97509.56;4962957;28;20055;-67
2021/11/09 05:30:50;;;;;;;13.57;7.93;;;;;;;10.46;100.00;97515.47;4963588;28;20434;-66
2021/11/09 05:33:18;;;;;;;22.20;9.25;;;;;;;10.53;99.95;97515.66;4962961;28;20064;-68
2021/11/09 05:35:46;;;;;;;19.10;10.07;;;;;;;10.57;99.85;97516.53;4963042;28;20069;-66
2021/11/09 05:38:14;;;;;;;21.98;11.48;;;;;;;10.37;100.00;97487.16;4964067;28;20558;-65
2021/11/09 05:40:51;;;;;;;29.67;11.98;;;;;;;10.74;99.31;97520.91;4963466;28;20171;-65
2021/11/09 05:43:18;;;;;;;28.38;13.38;;;;;;;10.78;99.23;97532.06;4964104;28;20042;-67
2021/11/09 05:45:45;;;;;;;25.17;12.20;;;;;;;10.41;99.66;97484.47;4963209;28;20054;-66
2021/11/09 05:48:12;;;;;;;23.25;10.65;;;;;;;10.93;98.96;97578.34;4963442;28;20050;-65
2021/11/09 05:50:39;;;;;;;32.83;14.85;;;;;;;10.92;99.21;97521.31;4963088;28;20059;-65
2021/11/09 05:53:05;;;;;;;46.53;20.85;;;;;;;11.18;98.28;97549.22;4962960;28;20059;-67
2021/11/09 05:55:32;;;;;;;53.30;23.60;;;;;;;11.31;98.70;97553.50;4964120;28;20054;-64
2021/11/09 05:57:59;;;;;;;47.03;21.65;;;;;;;10.50;97.89;97413.88;4964106;28;20146;-65
2021/11/09 06:00:26;;;;;;;43.35;21.73;;;;;;;10.90;97.60;97462.66;4964120;28;20529;-68
2021/11/09 06:02:53;;;;;;;35.72;16.38;;;;;;;11.58;98.07;97555.28;4964531;28;20047;-66
2021/11/09 06:05:20;;;;;;;25.45;11.60;;;;;;;11.84;96.43;97547.94;4963672;28;20047;-65
2021/11/09 06:07:46;;;;;;;23.08;10.85;;;;;;;11.91;94.54;97552.81;4962945;28;20695;-66
2021/11/09 06:10:13;;;;;;;25.05;11.15;;;;;;;11.89;93.72;97550.41;4964567;28;20065;-65
2021/11/09 06:12:40;;;;;;;19.65;10.80;;;;;;;11.96;93.23;97567.22;4964074;28;20062;-64
2021/11/09 06:15:07;;;;;;;23.20;12.15;;;;;;;11.37;92.62;97466.06;4963925;28;20107;-68
2021/11/09 06:17:33;;;;;;;27.33;11.13;;;;;;;12.17;92.19;97558.50;4967188;28;20062;-65
2021/11/09 06:20:01;;;;;;;25.88;11.82;;;;;;;12.31;91.47;97550.44;4968122;28;20501;-65
2021/11/09 06:22:28;;;;;;;21.27;11.77;;;;;;;12.56;90.12;97553.66;4966067;28;20153;-64
2021/11/09 06:24:55;;;;;;;17.40;10.45;;;;;;;12.17;88.96;97489.06;4966241;28;20348;-66
2021/11/09 06:27:22;;;;;;;23.58;11.13;;;;;;;12.93;87.64;97549.91;4967638;28;20054;-64
2021/11/09 06:29:51;;;;;;;25.67;13.05;;;;;;;12.58;86.55;97488.19;4967357;28;20054;-63
2021/11/09 06:32:18;;;;;;;50.28;19.90;;;;;;;13.23;85.38;97567.50;4967022;28;20143;-64
2021/11/09 06:34:45;;;;;;;49.78;21.45;;;;;;;13.01;85.14;97523.84;4964495;28;20061;-66
2021/11/09 06:37:12;;;;;;;32.25;13.40;;;;;;;13.21;84.96;97563.50;4966195;28;20065;-66
2021/11/09 06:39:39;;;;;;;24.67;12.32;;;;;;;12.90;84.95;97483.13;4967555;28;20323;-66
2021/11/09 06:42:06;;;;;;;25.20;9.88;;;;;;;10.97;85.15;97169.03;4963854;28;20441;-67
2021/11/09 06:44:33;;;;;;;27.15;10.05;;;;;;;13.41;86.03;97565.78;4961224;28;20073;-62
2021/11/09 06:47:00;;;;;;;17.83;10.07;;;;;;;13.02;85.26;97463.47;4966688;28;20062;-66
2021/11/09 06:49:27;;;;;;;19.10;9.20;;;;;;;13.77;84.06;97552.34;4965990;28;20482;-67
2021/11/09 06:51:54;;;;;;;20.60;9.60;;;;;;;13.65;82.05;97520.78;4965864;28;20051;-63
2021/11/09 06:54:21;;;;;;;20.95;8.77;;;;;;;12.71;82.32;97356.16;4964387;28;20055;-67
2021/11/09 06:56:48;;;;;;;20.92;9.32;;;;;;;13.62;82.70;97504.81;4951585;28;20043;-65
2021/11/09 06:59:17;;;;;;;25.25;9.45;;;;;;;14.01;82.57;97546.25;4947068;28;20607;-64
2021/11/09 07:01:46;;;;;;;30.02;13.98;;;;;;;13.37;82.69;97487.00;4948220;28;20051;-67
2021/11/09 07:04:14;;;;;;;20.98;10.10;;;;;;;13.78;84.16;97565.88;4948770;28;20051;-72
2021/11/09 07:06:41;;;;;;;18.10;8.55;;;;;;;13.58;86.18;97561.63;4946013;28;20057;-62
2021/11/09 07:09:07;;;;;;;21.48;9.80;;;;;;;13.48;87.42;97554.72;4952706;28;20431;-63
2021/11/09 07:11:35;;;;;;;22.80;8.88;;;;;;;12.69;91.34;97528.09;4946867;28;20244;-64
2021/11/09 07:14:02;;;;;;;19.05;8.75;;;;;;;13.17;89.68;97546.75;4948079;28;20178;-67
2021/11/09 07:16:29;;;;;;;28.45;10.07;;;;;;;13.58;88.62;97579.13;4964455;28;20137;-67
2021/11/09 07:19:02;;;;;;;30.80;12.05;;;;;;;12.47;88.53;97414.16;4965555;28;20515;-63
2021/11/09 07:21:30;;;;;;;19.67;10.20;;;;;;;13.11;88.50;97531.56;4954675;28;20536;-64
2021/11/09 07:23:58;;;;;;;25.27;10.77;;;;;;;12.49;88.66;97451.50;4966362;28;20066;-66
2021/11/09 07:26:26;;;;;;;22.00;11.20;;;;;;;13.14;89.43;97553.06;4960349;28;20049;-66
2021/11/09 07:28:54;;;;;;;25.05;11.95;;;;;;;13.48;88.91;97596.47;4956895;28;20066;-63
2021/11/09 07:31:21;;;;;;;25.30;12.27;;;;;;;13.40;89.46;97591.22;4951830;28;20143;-66
2021/11/09 07:33:49;;;;;;;28.58;11.55;;;;;;;13.57;88.75;97580.31;4965912;28;20055;-67
2021/11/09 07:36:16;;;;;;;21.42;10.48;;;;;;;13.17;88.60;97527.25;4962551;28;20137;-66
2021/11/09 07:38:43;;;;;;;21.58;11.57;;;;;;;13.45;89.25;97594.44;4963093;28;20503;-66
2021/11/09 07:41:10;;;;;;;24.63;11.98;;;;;;;13.37;88.42;97603.88;4957577;28;20137;-67
2021/11/09 07:43:37;;;;;;;20.92;10.27;;;;;;;13.47;89.23;97585.72;4947031;28;20067;-64
2021/11/09 07:46:04;;;;;;;22.40;10.40;;;;;;;13.39;87.68;97528.34;4946222;28;20359;-67
2021/11/09 07:48:31;;;;;;;24.33;10.10;;;;;;;13.23;86.14;97492.38;4944748;29;20897;-68
2021/11/09 07:50:58;;;;;;;23.70;10.80;;;;;;;13.44;89.45;97590.06;4945968;28;20055;-64
2021/11/09 07:53:30;;;;;;;22.42;11.25;;;;;;;13.22;87.64;97507.47;4946424;28;20061;-63
2021/11/09 07:58:40;;;;;;;27.55;10.77;;;;;;;13.52;85.15;97511.06;4964882;28;20151;-68
2021/11/09 08:01:11;;;;;;;27.48;10.63;;;;;;;14.12;84.75;97588.97;4964162;28;20509;-66
2021/11/09 08:06:26;;;;;;;22.00;10.45;;;;;;;13.81;83.42;97489.13;4959987;28;20321;-61
2021/11/09 08:11:26;;;;;;;24.90;10.73;;;;;;;11.50;82.17;97104.13;4964890;28;20055;-64
2021/11/09 08:13:53;;;;;;;24.67;11.20;;;;;;;13.61;88.36;97597.06;4964904;28;20085;-63
2021/11/09 08:16:20;;;;;;;25.58;12.55;;;;;;;13.12;93.13;97608.25;4961757;28;20050;-65
2021/11/09 08:18:48;;;;;;;22.42;11.77;;;;;;;12.01;95.70;97435.63;4965750;28;20054;-63
2021/11/09 08:21:14;;;;;;;31.55;11.80;;;;;;;12.80;92.07;97492.91;4963028;28;20058;-67
2021/11/09 08:23:47;;;;;;;25.98;10.82;;;;;;;11.91;90.40;97320.44;4965423;28;20531;-67
2021/11/09 08:26:19;;;;;;;28.73;12.20;;;;;;;13.45;93.35;97602.81;4963498;28;20549;-66
2021/11/09 08:28:47;;;;;;;24.63;12.07;;;;;;;13.31;95.53;97593.44;4965180;28;20153;-69
2021/11/09 08:31:17;;;;;;;29.73;12.70;;;;;;;13.61;94.93;97592.31;4965399;28;20441;-66
2021/11/09 08:37:07;;;;;;;26.90;12.35;;;;;;;13.18;88.59;97391.78;4950586;28;20043;-67
2021/11/09 08:39:41;;;;;;;32.90;15.18;;;;;;;14.65;87.78;97595.97;4962449;28;20066;-65
2021/11/09 08:42:13;;;;;;;30.67;13.43;;;;;;;14.90;86.45;97594.22;4963313;28;20055;-65
2021/11/09 08:47:19;;;;;;;27.58;13.93;;;;;;;14.84;84.19;97553.91;4963032;28;20073;-68
2021/11/09 08:49:47;;;;;;;39.47;14.40;;;;;;;15.24;83.17;97604.06;4965112;28;20073;-69
2021/11/09 08:52:14;;;;;;;32.50;13.80;;;;;;;15.45;83.24;97593.09;4962091;28;20724;-65
2021/11/09 09:05:46;;;;;;;27.67;13.38;;;;;;;15.37;79.80;97610.94;4963989;28;20053;-68
2021/11/09 09:08:13;;;;;;;30.60;14.15;;;;;;;14.87;79.72;97511.31;4963262;28;20129;-68
2021/11/09 09:10:40;;;;;;;33.80;14.85;;;;;;;15.76;79.81;97686.66;4963758;28;20669;-66
2021/11/09 09:13:06;;;;;;;25.13;12.70;;;;;;;15.84;79.29;97652.00;4963572;28;20053;-64
2021/11/09 09:15:33;;;;;;;30.05;13.88;;;;;;;15.90;79.03;97651.22;4962599;28;20050;-70
2021/11/09 09:18:00;;;;;;;32.85;15.30;;;;;;;14.21;78.75;97369.38;4962760;28;20057;-65
2021/11/09 09:20:36;;;;;;;29.02;13.45;;;;;;;15.67;78.72;97619.97;4963642;28;20047;-68
2021/11/09 09:23:08;;;;;;;27.50;12.60;;;;;;;15.58;78.12;97616.72;4962352;28;20153;-72
2021/11/09 09:55:39;;;;;;;34.88;16.20;;;;;;;15.02;85.15;97616.22;4948973;29;20173;-64
2021/11/09 09:58:10;;;;;;;30.25;14.23;;;;;;;14.70;85.49;97615.16;4948186;28;20074;-64
2021/11/09 10:00:38;;;;;;;33.65;15.75;;;;;;;15.23;85.25;97640.72;4948443;28;20480;-64
2021/11/09 10:03:06;;;;;;;32.28;15.25;;;;;;;14.81;85.74;97605.69;4946082;29;20047;-64
2021/11/09 10:05:38;;;;;;;33.00;13.98;;;;;;;15.26;84.46;97632.41;4948283;28;20114;-64
2021/11/09 10:08:12;;;;;;;37.70;16.00;;;;;;;15.38;83.75;97640.47;4946564;29;20177;-64
2021/11/09 10:10:39;;;;;;;33.20;15.77;;;;;;;15.51;82.53;97627.00;4946710;28;20055;-64
2021/11/09 10:13:10;;;;;;;37.08;17.00;;;;;;;15.69;82.29;97625.97;4947908;28;20058;-65
2021/11/09 10:15:44;;;;;;;42.33;17.98;;;;;;;14.72;86.27;97635.06;4944957;28;20139;-66
2021/11/09 10:18:13;;;;;;;36.90;15.88;;;;;;;14.04;86.60;97542.69;4946163;29;20099;-64
2021/11/09 10:20:49;;;;;;;35.40;15.95;;;;;;;14.74;87.24;97627.94;4947734;28;20051;-64
2021/11/09 10:23:34;;;;;;;53.28;26.45;;;;;;;14.36;88.31;97627.50;4958631;28;20174;-69
2021/11/09 10:26:14;;;;;;;42.88;19.60;;;;;;;13.97;88.11;97548.22;4966030;28;20058;-67
2021/11/09 10:28:42;;;;;;;31.35;14.80;;;;;;;14.57;86.40;97599.88;4960407;28;20044;-67
2021/11/09 10:31:11;;;;;;;36.10;15.60;;;;;;;11.92;87.10;97244.31;4960460;28;20058;-70
2021/11/09 10:33:50;;;;;;;35.38;16.20;;;;;;;14.42;89.07;97653.84;4964613;28;20075;-71
2021/11/09 10:36:30;;;;;;;33.35;15.25;;;;;;;13.22;87.45;97435.13;4960094;28;20434;-71
2021/11/09 10:39:19;;;;;;;36.17;15.25;;;;;;;13.58;90.62;97570.78;4962596;28;20513;-62
2021/11/09 10:42:17;;;;;;;49.25;19.92;;;;;;;11.83;89.67;97226.31;4963348;28;20693;-67
2021/11/09 10:44:51;;;;;;;49.53;20.90;;;;;;;14.08;90.54;97549.13;4978677;28;20062;-69
2021/11/09 10:47:20;;;;;;;48.30;22.25;;;;;;;14.31;91.17;97608.34;4945861;29;20055;-68
2021/11/09 10:49:59;;;;;;;49.05;20.00;;;;;;;14.07;91.41;97544.75;4962986;28;20051;-67
2021/11/09 10:52:34;;;;;;;56.53;25.88;;;;;;;14.07;92.91;97548.31;4966365;28;20058;-70
2021/11/09 10:58:21;;;;;;;60.97;23.15;;;;;;;13.97;93.05;97517.56;4964260;28;20539;-63
2021/11/09 11:06:32;;;;;;;42.05;19.38;;;;;;;14.02;90.59;97487.38;4960468;28;20070;-63
2021/11/09 11:09:12;;;;;;;26.10;12.13;;;;;;;15.08;85.52;97653.75;4964575;28;20418;-63
2021/11/09 11:12:05;;;;;;;32.17;14.60;;;;;;;13.82;85.94;97468.44;4960229;28;20050;-61
2021/11/09 11:14:33;;;;;;;32.38;13.43;;;;;;;14.95;86.89;97666.41;4965087;28;20093;-63
2021/11/09 11:17:10;;;;;;;30.08;14.70;;;;;;;14.85;87.24;97644.78;4964970;28;20119;-65
2021/11/09 11:19:37;;;;;;;23.27;11.48;;;;;;;14.75;86.63;97645.44;4966720;28;20058;-67
2021/11/09 11:22:09;;;;;;;23.30;10.60;;;;;;;13.91;88.08;97502.38;4965645;28;20465;-69
2021/11/09 11:24:38;;;;;;;19.47;9.93;;;;;;;14.23;87.37;97550.88;4955277;28;20059;-67
2021/11/09 11:27:08;;;;;;;21.27;11.02;;;;;;;13.96;86.60;97535.47;4962232;28;20133;-64
2021/11/09 11:29:36;;;;;;;27.70;11.13;;;;;;;14.71;86.14;97627.91;4947218;28;20054;-68
2021/11/09 11:32:09;;;;;;;23.90;11.43;;;;;;;15.02;85.83;97688.78;4960857;28;20051;-65
2021/11/09 11:34:36;;;;;;;21.58;11.35;;;;;;;14.16;86.07;97534.09;4938789;28;20515;-69
2021/11/09 11:37:04;;;;;;;23.50;10.85;;;;;;;15.20;84.66;97692.56;4920719;28;20735;-69
2021/11/09 11:39:34;;;;;;;22.48;9.75;;;;;;;15.24;83.99;97687.78;4929558;28;20563;-66
2021/11/09 11:42:07;;;;;;;23.15;10.15;;;;;;;15.34;81.93;97694.66;4931904;28;20047;-65
2021/11/09 11:44:37;;;;;;;39.65;14.13;;;;;;;15.27;82.88;97700.97;4931630;28;20141;-65
2021/11/09 11:47:16;;;;;;;23.00;11.68;;;;;;;15.29;82.00;97712.56;4929724;28;20272;-66
2021/11/09 11:49:48;;;;;;;37.78;17.23;;;;;;;15.33;80.94;97709.81;4927226;28;20055;-67
2021/11/09 11:52:27;;;;;;;25.33;11.55;;;;;;;14.71;81.05;97650.22;4934528;28;20059;-76
2021/11/09 11:55:05;;;;;;;27.80;12.18;;;;;;;14.54;80.68;97595.06;4949900;28;20441;-68
2021/11/09 11:57:36;;;;;;;34.20;13.60;;;;;;;15.31;81.15;97724.16;4934105;28;20071;-66
2021/11/09 12:00:28;;;;;;;38.53;16.92;;;;;;;15.36;81.07;97704.28;4928513;28;20335;-66
2021/11/09 12:02:57;;;;;;;29.35;13.55;;;;;;;14.37;82.24;97548.31;4929138;28;20050;-71
2021/11/09 12:05:33;;;;;;;35.58;15.43;;;;;;;15.27;82.47;97700.97;4936950;28;20481;-66
2021/11/09 12:08:01;;;;;;;34.28;16.90;;;;;;;13.78;82.55;97457.28;4931432;28;20043;-71
2021/11/09 12:10:45;;;;;;;37.17;16.75;;;;;;;15.36;82.16;97695.09;4916515;29;20602;-64
2021/11/09 12:13:14;;;;;;;32.15;14.82;;;;;;;15.13;80.78;97661.78;4950848;28;20046;-69
2021/11/09 12:15:53;;;;;;;36.00;17.05;;;;;;;15.39;80.86;97709.13;4934963;28;20061;-72
2021/11/09 12:18:34;;;;;;;32.33;14.93;;;;;;;15.41;81.47;97706.75;4935606;28;20422;-72
2021/11/09 12:21:24;;;;;;;35.78;17.92;;;;;;;15.37;81.72;97710.63;4923738;28;20046;-69
2021/11/09 12:24:19;;;;;;;39.90;16.75;;;;;;;13.58;82.38;97431.59;4935099;28;20417;-68
2021/11/09 12:26:56;;;;;;;29.27;14.88;;;;;;;15.29;82.12;97715.34;4936729;28;20058;-74
2021/11/09 12:29:35;;;;;;;46.58;17.80;;;;;;;15.36;82.86;97721.03;4912955;28;20062;-64
2021/11/09 12:32:21;;;;;;;33.78;14.90;;;;;;;15.36;82.07;97782.44;4948899;28;20058;-69
2021/11/09 12:35:05;;;;;;;52.35;17.25;;;;;;;13.05;81.97;97384.84;4924542;28;20059;-71
2021/11/09 12:37:41;;;;;;;27.75;13.95;;;;;;;15.25;81.96;97731.28;4925510;28;20058;-64
2021/11/09 12:40:29;;;;;;;27.23;14.00;;;;;;;13.02;81.98;97422.56;4929942;28;20055;-67
2021/11/09 12:43:16;;;;;;;21.35;10.93;;;;;;;14.75;82.60;97734.69;4930882;28;20348;-68
2021/11/09 12:46:24;;;;;;;16.33;9.63;;;;;;;13.99;82.33;97741.63;4935086;28;20050;-67
2021/11/09 12:49:14;;;;;;;12.95;6.55;;;;;;;13.63;77.80;97711.63;4950556;28;20554;-68
2021/11/09 12:51:46;;;;;;;16.58;7.28;;;;;;;12.98;79.25;97679.47;4926115;28;20054;-69
2021/11/09 12:54:20;;;;;;;12.10;6.80;;;;;;;12.01;78.54;97519.72;4935132;28;20961;-69
2021/11/09 12:56:51;;;;;;;21.00;11.80;;;;;;;13.04;78.73;97701.09;4933776;28;20244;-69
2021/11/09 12:59:29;;;;;;;33.72;15.40;;;;;;;13.40;77.63;97658.78;4927095;28;20062;-74
2021/11/09 13:09:58;;;;;;;11.93;6.47;;;;;;;13.66;78.63;97789.66;4936772;28;20553;-70
2021/11/09 13:12:32;;;;;;;15.57;6.78;;;;;;;13.43;78.77;97786.09;4929924;28;20074;-72
2021/11/09 13:15:05;;;;;;;12.95;6.53;;;;;;;12.88;81.37;97750.41;4943331;28;20185;-66
2021/11/09 13:17:37;;;;;;;14.75;7.78;;;;;;;13.25;81.99;97790.50;4953465;28;20600;-67
2021/11/09 13:20:20;;;;;;;15.23;7.07;;;;;;;11.17;80.71;97550.41;4927369;28;20078;-67
2021/11/09 13:23:15;;;;;;;13.10;6.53;;;;;;;13.41;82.12;97782.84;4944652;28;20405;-70
2021/11/09 13:25:49;;;;;;;16.88;8.40;;;;;;;11.28;84.35;97446.06;4949256;28;20381;-71
2021/11/09 13:28:20;;;;;;;18.77;9.05;;;;;;;13.49;84.85;97806.03;4963005;28;20679;-68
2021/11/09 13:30:58;;;;;;;13.05;8.52;;;;;;;13.57;85.22;97814.16;4964142;28;20050;-70
2021/11/09 13:33:26;;;;;;;22.05;9.88;;;;;;;13.65;84.23;97799.19;4963307;28;20062;-67
2021/11/09 13:35:58;;;;;;;27.27;11.30;;;;;;;13.36;83.69;97755.34;4964017;28;20129;-68
2021/11/09 13:38:33;;;;;;;21.67;9.95;;;;;;;13.28;83.08;97781.41;4964340;28;20054;-72
2021/11/09 13:41:04;;;;;;;16.75;8.30;;;;;;;13.51;80.07;97759.94;4964337;28;20069;-68
2021/11/09 13:43:36;;;;;;;17.02;8.60;;;;;;;13.78;79.38;97799.81;4962115;28;20117;-69
2021/11/09 13:46:08;;;;;;;16.17;7.38;;;;;;;13.95;78.77;97807.63;4956431;28;20496;-67
2021/11/09 13:48:37;;;;;;;12.68;6.25;;;;;;;13.09;80.36;97830.72;4963135;28;20670;-67
2021/11/09 13:51:10;;;;;;;10.45;5.43;;;;;;;12.56;82.02;97737.88;4964645;28;20109;-77
2021/11/09 13:53:43;;;;;;;12.63;5.83;;;;;;;12.15;83.34;97658.84;4957206;28;20060;-72
2021/11/09 13:56:16;;;;;;;14.77;6.60;;;;;;;13.13;85.03;97849.09;4963247;28;20057;-76
2021/11/09 13:59:02;;;;;;;15.38;6.00;;;;;;;13.19;85.86;97858.75;4962541;28;20393;-70
2021/11/09 14:16:07;;;;;;;12.57;6.25;;;;;;;13.44;82.70;97882.31;4963752;28;20050;-68
2021/11/09 14:18:34;;;;;;;18.20;8.57;;;;;;;12.70;80.82;97818.78;4962752;28;20521;-69
2021/11/09 14:21:06;;;;;;;21.58;7.90;;;;;;;13.44;80.88;97881.50;4963775;28;20153;-69
2021/11/09 14:23:34;;;;;;;22.80;11.07;;;;;;;13.48;81.94;97880.38;4964430;28;20051;-70
2021/11/09 14:26:21;;;;;;;33.65;15.43;;;;;;;13.45;84.70;97889.47;4963690;28;20137;-70
2021/11/09 14:28:49;;;;;;;38.22;18.42;;;;;;;13.27;87.06;97899.47;4961205;28;20058;-71
2021/11/09 14:31:27;;;;;;;50.28;21.55;;;;;;;13.21;89.28;97895.38;4964105;28;20502;-70
2021/11/09 14:34:11;;;;;;;50.83;22.65;;;;;;;13.20;90.40;97899.31;4962778;28;20065;-68
2021/11/09 14:36:40;;;;;;;34.90;16.73;;;;;;;13.01;92.50;97907.66;4964715;28;20059;-70
2021/11/09 14:39:15;;;;;;;29.73;12.85;;;;;;;12.82;94.87;97909.59;4968001;28;20053;-71
2021/11/09 14:45:19;;;;;;;34.58;14.80;;;;;;;12.65;96.17;97909.97;4954857;28;20051;-71
2021/11/09 14:47:46;;;;;;;68.13;25.58;;;;;;;12.49;98.46;97901.69;4964049;28;20058;-69
2021/11/09 14:50:41;;;;;;;52.03;18.52;;;;;;;12.48;98.38;97900.09;4967520;28;20581;-70